Lady's Island, South Carolina
Current Conditions -  °F | °C
As of 10:15 PM on Monday 22 Dec 2014 (Local Time) from KARW Reporting Station
Overcast Overcast  
Wind Chill: 44°   Ceiling: 400
Heat Index: 48°   Visibility: 10mi
Dew Point: 48°   Wind: 9mph
Humidity: 100%   Direction: 20°NNE
Pressure: 29.99"   Gusts: NA
Location:  32.43°N, 80.62°W
Report Text: KARW 230315Z AUTO 02008KT 10SM OVC004 09/09 A2999 RMK AO2 LTG DSNT SW
Loading
Personal Weather Stations






























Interactive Weather Map New forecast layout! Learn more

10-Day Weather Forecast

Advertisements
Track Severe Weather on mobile